Time;durP1;ratioP1;P1;durP2;ratioP2;P2;SDS_P1;SDS_P2;PMS_P1;PMS_P2;Temp;Humidity;BMP_temperature;BMP_pressure;BME280_temperature;BME280_humidity;BME280_pressure;Samples;Min_cycle;Max_cycle;Signal;HPM_P1;HPM_P2
2022/01/10 00:00:30;;;;;;;29.98;8.63;;;;;;;1.03;88.26;101123.22;5045364;28;20021;-74
2022/01/10 00:02:58;;;;;;;33.55;8.02;;;;;;;1.05;88.19;101129.28;5045618;28;20035;-75
2022/01/10 00:05:24;;;;;;;23.80;7.35;;;;;;;1.05;88.44;101136.22;5045709;28;20033;-73
2022/01/10 00:07:49;;;;;;;41.00;9.45;;;;;;;1.06;88.50;101138.84;5045280;28;20506;-74
2022/01/10 00:10:15;;;;;;;27.45;7.10;;;;;;;1.05;88.47;101149.19;5045793;28;20036;-71
2022/01/10 00:12:41;;;;;;;24.63;7.53;;;;;;;1.06;88.66;101153.53;5045520;28;20419;-73
2022/01/10 00:15:08;;;;;;;32.15;9.23;;;;;;;1.11;88.75;101152.72;5045564;28;20113;-73
2022/01/10 00:17:36;;;;;;;36.65;9.52;;;;;;;1.21;88.97;101158.84;5044054;28;20087;-73
2022/01/10 00:20:02;;;;;;;25.00;10.18;;;;;;;1.23;89.04;101157.16;5041768;28;20025;-73
2022/01/10 00:22:28;;;;;;;40.35;11.13;;;;;;;1.27;88.86;101176.25;5046110;28;20036;-73
2022/01/10 00:24:53;;;;;;;31.00;8.65;;;;;;;1.30;89.13;101173.69;5031728;28;20069;-73
2022/01/10 00:27:18;;;;;;;32.72;8.10;;;;;;;1.39;89.29;101172.91;5008210;28;20482;-74
2022/01/10 00:29:44;;;;;;;42.78;10.35;;;;;;;1.44;89.36;101171.19;5026303;28;20033;-73
2022/01/10 00:32:09;;;;;;;23.48;8.45;;;;;;;1.49;89.26;101161.75;5025029;28;20051;-73
2022/01/10 00:34:34;;;;;;;36.92;11.90;;;;;;;1.58;88.99;101165.25;5050727;28;20036;-73
2022/01/10 00:37:00;;;;;;;42.53;11.57;;;;;;;1.62;88.86;101161.81;5065429;28;20447;-73
2022/01/10 00:39:25;;;;;;;30.50;10.50;;;;;;;1.63;88.62;101168.78;5068340;28;20162;-73
2022/01/10 00:41:50;;;;;;;29.80;9.90;;;;;;;1.64;88.62;101163.59;5068726;28;20024;-73
2022/01/10 00:44:16;;;;;;;39.92;8.95;;;;;;;1.63;88.50;101167.03;5069368;28;20024;-73
2022/01/10 00:46:41;;;;;;;32.33;9.73;;;;;;;1.61;88.29;101168.78;5068986;28;20106;-73
2022/01/10 00:49:06;;;;;;;37.30;10.75;;;;;;;1.61;88.34;101180.88;5069191;28;20062;-72
2022/01/10 00:51:32;;;;;;;29.90;9.25;;;;;;;1.61;88.31;101191.25;5069150;28;20066;-73
2022/01/10 00:53:58;;;;;;;28.48;9.98;;;;;;;1.59;88.32;101201.63;5069081;28;20091;-73
2022/01/10 00:56:24;;;;;;;30.90;9.77;;;;;;;1.58;88.23;101199.03;5069381;28;20087;-73
2022/01/10 00:58:49;;;;;;;28.67;9.32;;;;;;;1.63;88.15;101205.16;5069188;28;20388;-71
2022/01/10 01:01:15;;;;;;;32.72;8.73;;;;;;;1.65;88.02;101216.41;5067620;28;20021;-68
2022/01/10 01:03:41;;;;;;;25.23;9.23;;;;;;;1.61;88.00;101214.66;5069109;28;20024;-75
2022/01/10 01:06:07;;;;;;;35.50;9.52;;;;;;;1.56;88.06;101214.59;5067759;28;20032;-73
2022/01/10 01:08:34;;;;;;;43.80;8.77;;;;;;;1.56;88.07;101226.75;5068758;28;20036;-73
2022/01/10 01:13:37;;;;;;;27.98;9.35;;;;;;;1.64;88.57;101228.56;5051139;28;20055;-72
2022/01/10 01:24:03;;;;;;;31.58;9.52;;;;;;;1.77;88.71;101244.22;5066935;28;20062;-73
2022/01/10 01:26:30;;;;;;;32.83;11.30;;;;;;;1.80;88.45;101236.47;5067408;28;20502;-73
2022/01/10 01:28:55;;;;;;;32.85;10.57;;;;;;;1.83;88.46;101246.88;5067208;28;20360;-75
2022/01/10 01:31:21;;;;;;;26.13;9.95;;;;;;;1.83;88.55;101246.00;5067741;28;20097;-73
2022/01/10 01:33:46;;;;;;;32.20;10.38;;;;;;;1.82;88.34;101249.47;5067959;28;20040;-74
2022/01/10 01:36:12;;;;;;;33.50;10.82;;;;;;;1.86;88.39;101253.84;5068638;28;20036;-74
2022/01/10 01:38:38;;;;;;;35.97;12.40;;;;;;;1.85;88.10;101258.19;5068292;28;20028;-75
2022/01/10 01:42:06;;;;;;;26.35;10.13;;;;;;;1.82;88.03;101259.88;5067166;28;20048;-73
2022/01/10 01:43:59;;;;;;;45.22;11.27;;;;;;;1.79;87.79;101257.25;5054037;28;20085;-74
2022/01/10 01:46:25;;;;;;;34.40;10.02;;;;;;;1.70;87.34;101265.81;5066366;28;20032;-75
2022/01/10 01:48:52;;;;;;;29.40;8.85;;;;;;;1.60;87.04;101264.88;5068111;28;20058;-74
2022/01/10 01:51:18;;;;;;;30.05;11.32;;;;;;;1.55;86.93;101279.53;5068087;28;20029;-73
2022/01/10 01:53:44;;;;;;;27.95;10.30;;;;;;;1.45;86.92;101275.97;5068587;28;20027;-73
2022/01/10 01:56:10;;;;;;;32.45;11.18;;;;;;;1.36;87.36;101284.53;5068364;28;20032;-74
2022/01/10 01:58:37;;;;;;;37.35;10.88;;;;;;;1.30;87.47;101281.84;5067931;28;20039;-74
2022/01/10 02:01:03;;;;;;;29.85;12.07;;;;;;;1.25;87.60;101289.59;5066819;28;20027;-74
2022/01/10 02:03:38;;;;;;;36.95;11.80;;;;;;;1.30;87.75;101297.44;5050580;28;20033;-74
2022/01/10 02:06:04;;;;;;;43.08;14.25;;;;;;;1.26;88.21;101302.59;5047712;28;20021;-72
2022/01/10 02:08:30;;;;;;;32.90;11.57;;;;;;;1.30;87.87;101302.63;5028993;28;20485;-73
2022/01/10 02:10:55;;;;;;;36.35;11.88;;;;;;;1.26;87.95;101320.75;5047789;28;20252;-73
2022/01/10 02:13:20;;;;;;;36.45;13.65;;;;;;;1.26;87.84;101323.34;5048439;22;20939;-73
2022/01/10 02:15:49;;;;;;;29.73;12.75;;;;;;;1.25;88.14;101332.00;5026574;28;20084;-74
2022/01/10 02:18:16;;;;;;;42.00;14.20;;;;;;;1.29;88.05;101332.03;5022918;28;20599;-74
2022/01/10 02:20:41;;;;;;;43.25;14.93;;;;;;;1.29;87.90;101337.25;5022874;28;20050;-73
2022/01/10 02:23:06;;;;;;;40.40;14.45;;;;;;;1.25;88.10;101334.59;5007655;28;20049;-74
2022/01/10 02:25:32;;;;;;;34.88;11.18;;;;;;;1.21;87.93;101343.19;5007989;28;20037;-73
2022/01/10 02:27:57;;;;;;;26.55;10.50;;;;;;;1.16;88.22;101351.75;5013293;28;20026;-74
2022/01/10 02:30:23;;;;;;;31.20;11.95;;;;;;;1.16;88.08;101357.84;4989926;28;20084;-74
2022/01/10 02:32:48;;;;;;;35.15;10.77;;;;;;;1.12;88.14;101356.06;5006359;28;20484;-74
2022/01/10 02:35:38;;;;;;;34.90;11.32;;;;;;;1.15;88.06;101370.78;4989771;28;20025;-75
2022/01/10 02:38:04;;;;;;;31.42;12.02;;;;;;;1.13;88.39;101368.19;5007362;28;20025;-74
2022/01/10 02:40:32;;;;;;;48.10;14.23;;;;;;;1.17;88.63;101369.09;5007750;28;20067;-75
2022/01/10 02:42:58;;;;;;;45.83;12.52;;;;;;;1.16;88.92;101376.00;5007149;28;20014;-74
2022/01/10 02:45:23;;;;;;;33.10;11.73;;;;;;;1.17;88.82;101377.75;5006633;28;20010;-74
2022/01/10 02:47:49;;;;;;;56.83;16.88;;;;;;;1.28;88.77;101380.50;5011017;28;20499;-74
2022/01/10 02:50:16;;;;;;;53.20;18.25;;;;;;;1.34;88.76;101390.09;5041490;28;20061;-69
2022/01/10 02:52:42;;;;;;;51.10;16.25;;;;;;;1.40;88.63;101397.97;5046268;28;20025;-73
2022/01/10 02:55:10;;;;;;;40.10;16.27;;;;;;;1.44;88.85;101394.56;5045165;28;20526;-72
2022/01/10 02:57:35;;;;;;;43.65;17.90;;;;;;;1.42;88.89;101398.88;5046803;28;20067;-74
2022/01/10 03:00:10;;;;;;;33.85;13.48;;;;;;;1.42;88.81;101396.28;5045510;28;20458;-72
2022/01/10 03:02:36;;;;;;;44.10;15.10;;;;;;;1.48;88.83;101404.13;5036985;28;20100;-73
2022/01/10 03:05:03;;;;;;;38.45;14.88;;;;;;;1.49;88.60;101398.09;5008882;28;20132;-74
2022/01/10 03:07:29;;;;;;;40.67;15.70;;;;;;;1.53;88.82;101405.94;5025817;28;20017;-75
2022/01/10 03:09:54;;;;;;;49.90;16.27;;;;;;;1.49;88.65;101413.69;5037968;28;20380;-73
2022/01/10 03:12:20;;;;;;;35.17;12.27;;;;;;;1.50;88.78;101419.72;5028781;28;20363;-74
2022/01/10 03:14:46;;;;;;;45.47;14.43;;;;;;;1.53;88.68;101419.75;5044912;28;20067;-75
2022/01/10 03:17:12;;;;;;;49.47;17.02;;;;;;;1.60;88.64;101424.19;5046023;28;20025;-74
2022/01/10 03:19:38;;;;;;;37.40;14.93;;;;;;;1.62;88.70;101432.00;5046746;28;20729;-74
2022/01/10 03:22:05;;;;;;;56.10;17.58;;;;;;;1.70;88.52;101426.91;5028304;28;20053;-75
2022/01/10 03:24:30;;;;;;;46.88;16.20;;;;;;;1.71;88.85;101439.91;5046447;28;20021;-74
2022/01/10 03:26:56;;;;;;;40.42;14.57;;;;;;;1.72;88.93;101444.25;5045015;28;20032;-74
2022/01/10 03:29:21;;;;;;;50.75;18.30;;;;;;;1.75;88.74;101449.50;5046170;28;20029;-73
2022/01/10 03:31:47;;;;;;;46.40;17.98;;;;;;;1.81;88.97;101455.63;5044325;28;20387;-75
2022/01/10 03:34:13;;;;;;;43.35;18.70;;;;;;;1.85;88.94;101457.41;5039603;28;20120;-74
2022/01/10 03:36:43;;;;;;;44.55;16.58;;;;;;;1.90;88.96;101466.16;5026341;28;20029;-73
2022/01/10 03:39:09;;;;;;;42.35;17.70;;;;;;;1.95;88.89;101468.78;5025057;28;20029;-73
2022/01/10 03:41:36;;;;;;;49.00;18.30;;;;;;;2.02;88.83;101471.47;5013555;28;20058;-73
2022/01/10 03:44:02;;;;;;;54.33;21.55;;;;;;;2.05;88.86;101472.38;5045496;28;20025;-74
2022/01/10 03:46:28;;;;;;;40.03;19.15;;;;;;;2.11;88.71;101480.25;5044454;28;20025;-74
2022/01/10 03:48:53;;;;;;;40.95;18.63;;;;;;;2.13;89.02;101484.63;5045802;28;20033;-74
2022/01/10 03:51:19;;;;;;;40.00;17.55;;;;;;;2.18;88.45;101484.69;5046204;28;20053;-74
2022/01/10 03:53:44;;;;;;;42.13;16.48;;;;;;;2.21;88.45;101491.63;5028364;28;20380;-66
2022/01/10 03:56:09;;;;;;;34.30;16.80;;;;;;;2.19;88.62;101486.41;5046797;28;20033;-75
2022/01/10 03:58:35;;;;;;;40.58;16.55;;;;;;;2.21;88.57;101497.72;5028796;28;20496;-75
2022/01/10 04:01:02;;;;;;;40.80;15.43;;;;;;;2.20;88.37;101492.50;5046688;28;20051;-74
2022/01/10 04:03:27;;;;;;;44.90;16.10;;;;;;;2.21;88.29;101489.91;5035051;28;20048;-74
2022/01/10 04:05:53;;;;;;;41.10;17.80;;;;;;;2.19;88.14;101486.41;5009508;28;20503;-74
2022/01/10 04:08:19;;;;;;;42.00;17.35;;;;;;;2.25;88.14;101494.28;5025873;28;20475;-72
2022/01/10 04:10:44;;;;;;;48.97;18.70;;;;;;;2.29;88.11;101496.91;5026972;28;20021;-73
2022/01/10 04:13:09;;;;;;;40.67;15.77;;;;;;;2.30;87.75;101507.34;5028649;28;20046;-72
2022/01/10 04:15:35;;;;;;;36.92;15.80;;;;;;;2.26;88.05;101501.22;5027331;28;20065;-72
2022/01/10 04:18:02;;;;;;;32.40;16.77;;;;;;;2.25;87.96;101507.28;5029716;28;20055;-73
2022/01/10 04:20:27;;;;;;;40.10;16.13;;;;;;;2.30;88.00;101516.88;5030519;28;20021;-74
2022/01/10 04:22:54;;;;;;;37.50;16.50;;;;;;;2.32;87.76;101510.81;5029711;28;20176;-73
2022/01/10 04:25:19;;;;;;;44.08;16.33;;;;;;;2.36;87.88;101522.16;4995872;28;20481;-73
2022/01/10 04:27:45;;;;;;;36.78;19.58;;;;;;;2.36;87.79;101523.03;5029152;28;20034;-73
2022/01/10 04:30:11;;;;;;;44.63;17.58;;;;;;;2.35;87.90;101531.66;5010044;28;20026;-73
2022/01/10 04:32:37;;;;;;;50.88;18.92;;;;;;;2.34;87.89;101534.25;5012223;28;20450;-74
2022/01/10 04:35:03;;;;;;;45.13;18.52;;;;;;;2.33;87.99;101542.91;5028629;28;20022;-74
2022/01/10 04:37:28;;;;;;;30.77;16.10;;;;;;;2.41;87.86;101546.50;5029732;28;20095;-74
2022/01/10 04:39:53;;;;;;;33.38;15.25;;;;;;;2.48;87.35;101557.81;5029455;28;20072;-73
2022/01/10 04:42:19;;;;;;;36.85;16.80;;;;;;;2.48;87.26;101569.13;5028326;28;20121;-73
2022/01/10 04:44:44;;;;;;;42.03;18.45;;;;;;;2.44;87.53;101585.53;5009031;28;20036;-72
2022/01/10 04:47:10;;;;;;;33.03;17.40;;;;;;;2.43;87.29;101570.78;4992574;28;20022;-73
2022/01/10 04:50:03;;;;;;;32.17;16.17;;;;;;;2.43;87.11;101586.38;5020915;28;20113;-73
2022/01/10 04:52:21;;;;;;;36.30;14.93;;;;;;;2.45;87.52;101589.88;5028929;28;20029;-73
2022/01/10 04:54:46;;;;;;;39.63;15.52;;;;;;;2.46;87.45;101602.03;5028178;28;20422;-73
2022/01/10 04:57:12;;;;;;;30.90;15.23;;;;;;;2.50;87.44;101598.59;5011961;28;20026;-74
2022/01/10 04:59:37;;;;;;;34.90;15.63;;;;;;;2.51;87.38;101602.97;5028221;28;20072;-72
2022/01/10 05:02:02;;;;;;;37.47;18.65;;;;;;;2.48;87.11;101615.94;5028514;28;20079;-73
2022/01/10 05:04:28;;;;;;;38.10;17.58;;;;;;;2.48;86.98;101612.47;5028872;28;20025;-73
2022/01/10 05:06:53;;;;;;;38.05;15.32;;;;;;;2.47;87.31;101619.38;5027593;28;20076;-72
2022/01/10 05:09:18;;;;;;;36.92;17.85;;;;;;;2.47;87.13;101629.78;5030485;28;20112;-73
2022/01/10 05:11:45;;;;;;;39.03;17.38;;;;;;;2.46;87.37;101628.06;5049251;28;20037;-74
2022/01/10 05:14:11;;;;;;;39.05;18.00;;;;;;;2.43;87.13;101625.41;5047726;28;20156;-74
2022/01/10 05:16:38;;;;;;;45.03;18.65;;;;;;;2.42;87.19;101626.28;5047985;28;20116;-73
2022/01/10 05:19:03;;;;;;;37.13;15.57;;;;;;;2.48;87.02;101625.47;5040078;28;20033;-74
2022/01/10 05:21:29;;;;;;;39.38;15.32;;;;;;;2.50;87.04;101629.81;5037642;28;20044;-74
2022/01/10 05:23:54;;;;;;;27.58;16.38;;;;;;;2.47;86.93;101642.78;5027944;28;20091;-74
2022/01/10 05:26:19;;;;;;;37.08;17.70;;;;;;;2.47;87.12;101648.00;5027069;28;20087;-73
2022/01/10 05:28:45;;;;;;;31.40;16.30;;;;;;;2.46;86.94;101647.97;5027797;28;20080;-74
2022/01/10 05:31:10;;;;;;;36.78;16.63;;;;;;;2.42;87.14;101657.50;5027405;28;20021;-73
2022/01/10 05:33:35;;;;;;;35.22;16.35;;;;;;;2.45;87.17;101660.13;5028087;28;20021;-73
2022/01/10 05:36:01;;;;;;;33.50;16.27;;;;;;;2.45;87.12;101662.72;5028275;28;20065;-74
2022/01/10 05:38:26;;;;;;;35.83;18.08;;;;;;;2.44;87.04;101667.91;5028319;28;20033;-72
2022/01/10 05:40:51;;;;;;;28.58;15.63;;;;;;;2.42;87.24;101675.69;5028223;28;20017;-73
2022/01/10 05:43:17;;;;;;;28.25;14.45;;;;;;;2.39;87.22;101678.25;5037668;28;20117;-73
2022/01/10 05:45:45;;;;;;;29.10;13.45;;;;;;;2.38;86.95;101679.13;5047826;28;20136;-73
2022/01/10 05:48:14;;;;;;;32.13;15.30;;;;;;;2.36;87.03;101676.50;5048410;28;20031;-73
2022/01/10 05:50:42;;;;;;;29.92;15.40;;;;;;;2.34;87.14;101691.19;5046796;28;20040;-74
2022/01/10 05:53:09;;;;;;;32.28;16.17;;;;;;;2.34;87.20;101679.91;5019743;28;20265;-73
2022/01/10 05:55:36;;;;;;;42.03;18.13;;;;;;;2.34;87.27;101692.91;5010604;28;20120;-74
2022/01/10 05:58:03;;;;;;;40.97;20.38;;;;;;;2.32;87.34;101692.88;5015212;28;20041;-73
2022/01/10 06:00:28;;;;;;;26.17;16.25;;;;;;;2.32;87.29;101702.44;5008781;28;20025;-75
2022/01/10 06:02:53;;;;;;;36.83;17.60;;;;;;;2.30;87.18;101704.13;5004740;28;20021;-73
2022/01/10 06:05:19;;;;;;;34.80;17.30;;;;;;;2.34;87.63;101705.91;5016864;28;20029;-73
2022/01/10 06:07:45;;;;;;;28.38;14.32;;;;;;;2.34;87.63;101721.50;5002583;28;20029;-73
2022/01/10 06:10:10;;;;;;;38.28;16.98;;;;;;;2.35;87.55;101713.75;5011040;28;20058;-73
2022/01/10 06:12:36;;;;;;;35.53;19.77;;;;;;;2.36;87.44;101712.91;5008275;28;20460;-73
2022/01/10 06:15:01;;;;;;;47.35;24.20;;;;;;;2.32;87.56;101724.09;5006703;28;20292;-74
2022/01/10 06:17:26;;;;;;;30.50;16.15;;;;;;;2.36;87.59;101735.44;5007874;28;20431;-74
2022/01/10 06:19:52;;;;;;;40.55;20.52;;;;;;;2.33;87.61;101736.28;4990294;28;20401;-72
2022/01/10 06:22:17;;;;;;;46.25;23.85;;;;;;;2.36;87.52;101740.63;5006499;28;20120;-73
2022/01/10 06:24:42;;;;;;;41.42;19.13;;;;;;;2.35;87.55;101741.50;5027470;28;20171;-73
2022/01/10 06:27:08;;;;;;;50.17;21.48;;;;;;;2.35;87.59;101750.16;5023828;28;20037;-72
2022/01/10 06:29:33;;;;;;;51.70;22.73;;;;;;;2.32;87.41;101754.44;5026588;28;20037;-73
2022/01/10 06:31:59;;;;;;;47.65;19.23;;;;;;;2.38;87.56;101759.75;5019176;28;20033;-73
2022/01/10 06:34:24;;;;;;;36.45;19.92;;;;;;;2.42;87.40;101760.66;5007399;28;20030;-72
2022/01/10 06:36:49;;;;;;;39.25;21.70;;;;;;;2.40;87.17;101768.44;5014905;28;20022;-75
2022/01/10 06:39:15;;;;;;;36.85;20.17;;;;;;;2.39;87.13;101766.69;5007432;28;20030;-72
2022/01/10 06:41:40;;;;;;;36.13;17.95;;;;;;;2.39;87.02;101777.09;5007903;28;20483;-74
2022/01/10 06:44:05;;;;;;;38.47;18.13;;;;;;;2.38;87.04;101783.16;5007028;28;20026;-74
2022/01/10 06:46:30;;;;;;;47.33;19.80;;;;;;;2.36;86.97;101792.66;5008942;28;20408;-73
2022/01/10 06:48:56;;;;;;;39.10;17.55;;;;;;;2.35;87.17;101796.13;5015415;28;20112;-74
2022/01/10 06:51:21;;;;;;;35.70;22.05;;;;;;;2.34;87.34;101802.16;5018833;28;20025;-70
2022/01/10 06:53:46;;;;;;;47.85;20.30;;;;;;;2.32;87.25;101806.47;5017324;28;20042;-67
2022/01/10 06:56:12;;;;;;;35.80;18.20;;;;;;;2.33;87.35;101797.81;5017481;28;20052;-71
2022/01/10 06:58:37;;;;;;;45.50;21.70;;;;;;;2.35;87.21;101798.72;5017682;28;20088;-70
2022/01/10 07:01:04;;;;;;;45.72;20.13;;;;;;;2.36;87.51;101816.06;5006990;28;20022;-69
2022/01/10 07:03:29;;;;;;;49.45;22.85;;;;;;;2.37;87.37;101821.31;5008713;28;20036;-68
2022/01/10 07:05:54;;;;;;;52.35;21.48;;;;;;;2.37;87.51;101821.31;5026336;28;20021;-67
2022/01/10 07:08:22;;;;;;;40.33;20.70;;;;;;;2.37;87.52;101830.81;5029484;28;20040;-66
2022/01/10 07:10:47;;;;;;;54.00;23.50;;;;;;;2.34;87.47;101828.16;5022568;28;20026;-68
2022/01/10 07:13:13;;;;;;;46.35;22.65;;;;;;;2.41;87.47;101835.25;5021053;28;20369;-68
2022/01/10 07:15:38;;;;;;;39.20;21.08;;;;;;;2.48;87.38;101847.50;5006644;28;20048;-68
2022/01/10 07:18:03;;;;;;;44.30;20.67;;;;;;;2.58;86.93;101858.03;5019305;28;20025;-67
2022/01/10 07:20:29;;;;;;;44.55;22.17;;;;;;;2.52;86.93;101858.81;5026110;28;20018;-65
2022/01/10 07:22:54;;;;;;;44.38;22.30;;;;;;;2.52;86.98;101867.50;5024969;28;20542;-67
2022/01/10 07:25:19;;;;;;;39.35;18.23;;;;;;;2.58;87.16;101871.94;5026048;28;20116;-65
2022/01/10 07:27:45;;;;;;;46.63;21.27;;;;;;;2.56;86.92;101883.16;5022507;28;20104;-65
2022/01/10 07:30:10;;;;;;;41.20;20.83;;;;;;;2.59;87.00;101888.44;5018430;28;20017;-65
2022/01/10 07:32:36;;;;;;;41.95;19.98;;;;;;;2.57;87.00;101890.13;5005840;28;20034;-67
2022/01/10 07:35:01;;;;;;;46.28;19.77;;;;;;;2.58;86.95;101891.84;5018369;28;20033;-68
2022/01/10 07:37:26;;;;;;;45.22;19.45;;;;;;;2.58;86.81;101907.47;5025871;28;20432;-66
2022/01/10 07:39:52;;;;;;;46.22;21.50;;;;;;;2.56;87.03;101917.00;5024652;28;20040;-66
2022/01/10 07:42:17;;;;;;;48.20;20.85;;;;;;;2.61;87.00;101911.00;5026034;28;20025;-66
2022/01/10 07:44:42;;;;;;;36.67;18.60;;;;;;;2.63;86.76;101921.44;5025526;28;20029;-69
2022/01/10 07:47:08;;;;;;;47.10;20.70;;;;;;;2.64;86.47;101933.59;5025511;28;20033;-68
2022/01/10 07:49:34;;;;;;;45.58;22.88;;;;;;;2.64;86.54;101938.81;5025663;28;20042;-69
2022/01/10 07:52:00;;;;;;;53.47;23.02;;;;;;;2.61;86.73;101942.25;5024960;28;20120;-68
2022/01/10 07:54:25;;;;;;;43.78;18.27;;;;;;;2.67;86.65;101948.41;5025879;28;20172;-69
2022/01/10 07:56:51;;;;;;;37.17;18.42;;;;;;;2.69;86.79;101944.09;5025402;28;20061;-68
2022/01/10 07:59:16;;;;;;;43.50;23.02;;;;;;;2.65;86.58;101949.25;5018499;28;20502;-67
2022/01/10 08:01:42;;;;;;;42.65;19.73;;;;;;;2.64;86.69;101957.03;5011624;28;20021;-69
2022/01/10 08:04:07;;;;;;;44.03;22.45;;;;;;;2.67;86.57;101962.28;5014984;28;20092;-68
2022/01/10 08:06:32;;;;;;;56.05;23.40;;;;;;;2.73;86.71;101961.50;5016105;28;20030;-69
2022/01/10 08:08:58;;;;;;;37.47;17.63;;;;;;;2.76;86.55;101972.88;5021429;28;20030;-69
2022/01/10 08:11:26;;;;;;;54.65;22.45;;;;;;;2.78;86.21;101972.91;5014236;28;20014;-69
2022/01/10 08:13:52;;;;;;;49.17;21.67;;;;;;;2.86;86.26;101975.63;4988407;28;20077;-68
2022/01/10 08:16:17;;;;;;;40.53;18.77;;;;;;;2.90;86.01;101977.44;5005565;28;20437;-68
2022/01/10 08:18:42;;;;;;;41.17;19.63;;;;;;;2.94;85.94;101984.44;5006101;28;20022;-66
2022/01/10 08:21:08;;;;;;;36.03;18.60;;;;;;;3.03;85.47;101992.41;5005594;28;20026;-67
2022/01/10 08:23:33;;;;;;;34.38;19.70;;;;;;;3.01;85.18;101991.50;5004590;28;20376;-66
2022/01/10 08:25:59;;;;;;;33.70;18.38;;;;;;;3.00;85.50;102005.38;5007850;28;20064;-68
2022/01/10 08:28:24;;;;;;;49.33;20.33;;;;;;;3.08;85.46;102013.31;5024605;28;20036;-68
2022/01/10 08:30:50;;;;;;;36.67;15.95;;;;;;;3.14;85.26;102018.63;5006573;28;20128;-69
2022/01/10 08:33:15;;;;;;;35.28;17.58;;;;;;;3.15;85.06;102020.38;5023381;28;20033;-67
2022/01/10 08:35:41;;;;;;;35.63;17.25;;;;;;;3.18;84.97;102024.75;5025706;28;20447;-68
2022/01/10 08:38:06;;;;;;;41.75;18.95;;;;;;;3.15;85.00;102024.69;5002587;28;20511;-69
2022/01/10 08:40:32;;;;;;;42.78;17.25;;;;;;;3.19;84.90;102030.84;5011798;28;20041;-68
2022/01/10 08:42:57;;;;;;;41.00;19.58;;;;;;;3.21;85.13;102043.03;5005035;28;20120;-68
2022/01/10 08:45:23;;;;;;;29.75;15.63;;;;;;;3.24;84.96;102042.19;5005274;28;20017;-67
2022/01/10 08:47:48;;;;;;;42.42;20.33;;;;;;;3.27;84.65;102044.84;5024018;28;20040;-68
2022/01/10 08:50:14;;;;;;;37.30;20.23;;;;;;;3.25;84.80;102037.00;5018683;28;20026;-69
2022/01/10 08:52:40;;;;;;;35.25;15.95;;;;;;;3.29;84.93;102044.00;5007023;28;20462;-70
2022/01/10 08:55:06;;;;;;;29.90;16.73;;;;;;;3.33;84.83;102038.84;5023674;28;20025;-69
2022/01/10 08:57:31;;;;;;;46.22;19.55;;;;;;;3.38;84.37;102042.44;5024762;28;20079;-68
2022/01/10 08:59:57;;;;;;;42.50;20.35;;;;;;;3.36;84.29;102047.63;5025875;28;20426;-69
2022/01/10 09:02:22;;;;;;;37.00;19.98;;;;;;;3.40;84.33;102052.00;5007120;28;20422;-68
2022/01/10 09:04:48;;;;;;;32.75;16.15;;;;;;;3.49;84.28;102053.88;5008512;28;20071;-67
2022/01/10 09:07:13;;;;;;;38.72;17.52;;;;;;;3.57;83.89;102059.22;5026613;28;20029;-68
2022/01/10 09:09:38;;;;;;;32.58;18.65;;;;;;;3.54;83.49;102060.06;5026090;28;20108;-70
2022/01/10 09:12:04;;;;;;;34.25;18.48;;;;;;;3.63;83.41;102071.47;5027929;28;20034;-69
2022/01/10 09:14:29;;;;;;;35.30;18.27;;;;;;;3.63;83.50;102067.13;5009209;28;20515;-69
2022/01/10 09:16:55;;;;;;;36.63;17.02;;;;;;;3.70;83.54;102078.50;5027742;28;20021;-68
2022/01/10 09:19:20;;;;;;;46.22;18.70;;;;;;;3.75;83.07;102079.47;5026469;28;20033;-69
2022/01/10 09:21:47;;;;;;;35.17;18.15;;;;;;;3.84;82.89;102072.63;5027406;28;20036;-70
2022/01/10 09:24:12;;;;;;;29.60;16.58;;;;;;;3.82;82.95;102079.56;5010675;28;20033;-68
2022/01/10 09:26:38;;;;;;;34.50;16.35;;;;;;;3.87;82.65;102085.72;5027959;28;20026;-68
2022/01/10 09:29:03;;;;;;;28.40;16.75;;;;;;;3.85;82.64;102085.69;5025296;28;21228;-69
2022/01/10 09:31:29;;;;;;;35.83;15.65;;;;;;;3.98;82.25;102086.75;5013787;28;20053;-69
2022/01/10 09:33:55;;;;;;;37.80;17.95;;;;;;;4.02;82.01;102092.88;4996374;28;20014;-67
2022/01/10 09:36:25;;;;;;;32.30;14.88;;;;;;;4.11;82.52;102103.44;4989188;28;20531;-68
2022/01/10 09:38:51;;;;;;;42.42;17.40;;;;;;;4.19;81.98;102100.94;5001089;28;20045;-67
2022/01/10 09:41:17;;;;;;;27.95;15.02;;;;;;;4.34;81.78;102115.03;5005280;28;20025;-68
2022/01/10 09:43:50;;;;;;;26.00;13.30;;;;;;;4.50;80.67;102121.31;5005646;28;20013;-70
2022/01/10 09:46:15;;;;;;;34.78;14.63;;;;;;;4.45;80.62;102118.66;4999068;28;20094;-67
2022/01/10 09:48:41;;;;;;;32.13;14.80;;;;;;;4.55;80.52;102122.25;4982773;28;20492;-69
2022/01/10 09:51:06;;;;;;;33.42;14.25;;;;;;;4.54;80.28;102121.38;5000936;28;20487;-69
2022/01/10 09:53:31;;;;;;;33.78;12.73;;;;;;;4.60;80.34;102127.53;5001524;28;20460;-64
2022/01/10 09:55:57;;;;;;;27.13;12.10;;;;;;;4.60;79.76;102132.75;5004008;28;20014;-70
2022/01/10 09:58:22;;;;;;;29.77;14.05;;;;;;;4.77;79.34;102143.41;4987424;28;20033;-70
2022/01/10 10:00:48;;;;;;;30.38;14.13;;;;;;;4.68;79.91;102157.22;5004135;28;20104;-71
2022/01/10 10:03:14;;;;;;;28.45;14.82;;;;;;;4.70;80.17;102155.50;5001012;28;20041;-72
2022/01/10 10:05:42;;;;;;;38.63;15.20;;;;;;;4.78;79.56;102156.47;5004936;28;20049;-67
2022/01/10 10:08:07;;;;;;;28.08;14.73;;;;;;;4.77;79.47;102162.56;5001855;28;20399;-68
2022/01/10 10:10:33;;;;;;;40.30;15.35;;;;;;;4.78;79.60;102163.41;4984049;28;20052;-69
2022/01/10 10:12:58;;;;;;;31.67;13.40;;;;;;;4.90;79.12;102166.19;4986942;28;20068;-69
2022/01/10 10:15:31;;;;;;;29.80;13.90;;;;;;;4.93;78.91;102179.28;5002862;28;20442;-69
2022/01/10 10:17:56;;;;;;;35.20;14.30;;;;;;;4.91;79.31;102186.22;4999379;28;20088;-73
2022/01/10 10:20:23;;;;;;;36.80;14.02;;;;;;;4.98;79.54;102191.50;5003900;28;20507;-73
2022/01/10 10:22:51;;;;;;;32.38;14.18;;;;;;;5.05;79.58;102194.22;5001833;28;20026;-74
2022/01/10 10:25:17;;;;;;;29.20;12.88;;;;;;;5.18;78.42;102194.34;4986421;28;20017;-71
2022/01/10 10:27:45;;;;;;;24.30;12.45;;;;;;;5.22;78.70;102201.38;5000164;28;20029;-69
2022/01/10 10:30:15;;;;;;;31.50;14.25;;;;;;;5.35;77.98;102201.47;4999659;28;20088;-70
2022/01/10 10:32:40;;;;;;;27.98;13.15;;;;;;;5.35;77.77;102211.91;4995812;28;20488;-69
2022/01/10 10:35:07;;;;;;;22.65;11.07;;;;;;;5.41;77.75;102204.16;4995617;28;20121;-68
2022/01/10 10:37:37;;;;;;;29.05;12.40;;;;;;;5.52;77.37;102220.84;4991304;28;20052;-69
2022/01/10 10:40:07;;;;;;;23.85;10.40;;;;;;;5.57;77.17;102219.13;4987552;28;20021;-69
2022/01/10 10:42:32;;;;;;;33.45;12.88;;;;;;;5.47;77.44;102221.63;4995537;28;20475;-66
2022/01/10 10:44:58;;;;;;;32.58;12.95;;;;;;;5.47;77.75;102230.34;4995158;28;20028;-65
2022/01/10 10:47:27;;;;;;;39.78;12.75;;;;;;;5.49;77.55;102232.97;4978223;28;20018;-67
2022/01/10 10:49:57;;;;;;;26.63;12.90;;;;;;;5.51;77.70;102234.75;4986218;28;20030;-69
2022/01/10 10:52:23;;;;;;;32.92;12.52;;;;;;;5.64;77.16;102245.34;4980539;28;20029;-65
2022/01/10 10:54:48;;;;;;;25.60;11.07;;;;;;;5.71;77.14;102244.53;4996832;28;20029;-68
2022/01/10 10:57:15;;;;;;;22.90;12.38;;;;;;;5.71;76.88;102246.25;4995271;28;20033;-66
2022/01/10 10:59:43;;;;;;;29.60;11.82;;;;;;;5.73;76.93;102245.44;4984926;28;20460;-68
2022/01/10 11:02:10;;;;;;;29.20;11.32;;;;;;;5.69;77.19;102251.50;4984342;28;20463;-69
2022/01/10 11:04:35;;;;;;;28.63;12.05;;;;;;;5.69;77.15;102254.13;4982931;28;20439;-70
2022/01/10 11:07:02;;;;;;;33.50;12.80;;;;;;;5.55;77.46;102257.47;4985152;28;20040;-69
2022/01/10 11:09:27;;;;;;;23.60;11.63;;;;;;;5.65;77.60;102253.19;4966931;28;20030;-69
2022/01/10 11:11:53;;;;;;;26.17;12.20;;;;;;;5.74;77.01;102268.09;4966065;28;20033;-68
2022/01/10 11:14:22;;;;;;;30.55;11.50;;;;;;;5.69;77.15;102269.81;4985285;28;20073;-68
2022/01/10 11:16:49;;;;;;;26.33;12.25;;;;;;;5.67;77.67;102271.50;4983208;28;20025;-62
2022/01/10 11:19:21;;;;;;;33.92;12.10;;;;;;;5.76;76.99;102275.97;4994008;28;20439;-70
2022/01/10 11:21:54;;;;;;;29.00;12.35;;;;;;;5.73;77.25;102271.59;4990131;28;20029;-67